Go Pro

SPDR S&P 600 Small Cap Growth ETF (SLYG) Institutional Ownership

SPDR S&P 600 Small Cap Growth ETF logo
$113.57 +0.70 (+0.62%)
As of 04:10 PM Eastern

Institutional Ownership Changes (13F Filings) for SPDR S&P 600 Small Cap Growth ETF (NYSEARCA:SLYG)

Number of
Institutional Buyers
(last 12 months)
286
Total
Institutional Inflows
(last 12 months)
$472.31M
Number of
Institutional Sellers
(last 12 months)
198
Total
Institutional Outflows
(last 12 months)
$275.07M
Get SLYG Insider Trade Alerts

Want to know when executives and insiders are buying or selling SPDR S&P 600 Small Cap Growth ETF stock? Sign up for InsiderTrades.com's daily newsletter to get the latest insider transactions delivered to your inbox daily.

SMS is currently available in Australia, Belgium, Canada, France, Germany, Ireland, Italy, New Zealand, the Netherlands, Singapore, South Africa, Spain, Switzerland, the United Kingdom, and the United States. By entering your phone number and clicking the sign-up button, you agree to receive periodic text messages from MarketBeat at the phone number you submitted, including texts that may be sent using an automatic telephone dialing system. Message and data rates may apply. Message frequency will vary. Messages will consist of stock alerts, news stories, and partner advertisements/offers. Consent is not a condition of the purchase of any goods or services. Text HELP for help/customer support. Unsubscribe at any time by replying "STOP" to any text message that you receive from MarketBeat or by visiting our mailing preferences page. Read our full terms of service and privacy policy.
Skip Chart & View Institutional Buying and Selling Data

SLYG Institutional Buying and Selling by Quarter

SPDR S&P 600 Small Cap Growth ETF Major Shareholders & Ownership History

Reporting DateMajor Shareholder NameShares HeldMarket Value% of PortfolioQuarterly Change in SharesOwnership in CompanyDetails
9/2/2026 Kinetic Wealth Investment Advisors LLC20,144$2.40M1.1%N/A0.046%
8/27/2026 Corient Private Wealth LP38,475$4.58M0.0%-14.4%0.087%
8/27/2026 Tucker Asset Management LLC2,503$298K0.1%+175.1%0.006%
8/25/2026 Tobias Financial Advisors Inc.15,860$1.89M0.2%-1.0%0.036%
8/23/2026 Ameritas Advisory Services LLC10,236$1.22M0.0%+117.3%0.023%
8/23/2026 HB Wealth Management LLC3,919$467K0.0%+31.9%0.009%
8/22/2026 Cornerstone Advisors Asset Management LLC111,228$13.25M1.7%+301.3%0.253%
8/22/2026 Concurrent Investment Advisors LLC2,263$270K0.0%N/A0.005%
8/21/2026 Integrity Financial Corp WA330$39K0.0%N/A0.001%
8/21/2026 Montz Harcus Wealth Management LLC1,922$229K0.1%N/A0.004%
8/21/2026 Rodgers & Associates LTD403,692$48.09M3.6%-3.5%0.916%
8/21/2026 Hudson Portfolio Management LLC1,720$205K0.2%-26.0%0.004%
8/21/2026 Coppell Advisory Solutions LLC2,540$303K0.1%N/A0.006%
8/20/2026 JNBA Financial Advisors12,175$1.45M0.1%-8.7%0.028%
8/13/2026 Capital Square LLC24,077$2.80M1.2%N/A0.055%
7/10/2026 Investors Research Corp13,234$1.58M0.3%-4.5%0.030%
7/10/2026 Nvest Wealth Strategies Inc.70,704$8.42M5.3%+0.8%0.161%
7/10/2026 HRC Wealth Management LLC78,831$9.39M3.8%+3.6%0.180%
7/10/2026 Clarus Wealth Advisors23,981$2.77M1.1%-4.3%0.055%
7/10/2026 Orrstown Financial Services Inc.5,085$606K0.1%+36.9%0.012%
7/10/2026 KWB Wealth75,460$8.99M0.8%-0.7%0.172%
7/10/2026 Wealthcare Advisory Partners LLC70,377$8.38M0.2%-1.6%0.160%
7/9/2026 Friday Financial15,533$1.81M0.5%+25.3%0.035%
7/9/2026 World Equity Group Inc.3,412$406K0.1%N/A0.008%
7/9/2026 Focus Financial Network Inc.23,013$2.74M0.1%-2.0%0.052%
7/9/2026 HF Advisory Group LLC3,024$360K0.1%-9.0%0.007%
7/9/2026 Roan Capital Partners42,817$5.10M4.2%+14.1%0.098%
7/9/2026 Everhart Financial Group Inc.538,759$64.18M4.1%+1,098.8%1.229%
7/7/2026 Bill Few Associates Inc.11,426$1.36M0.3%+0.8%0.026%
7/7/2026 Balefire LLC3,669$437K0.1%-12.8%0.008%
7/7/2026 Inspirion Wealth Advisors LLC6,024$712K0.1%-4.2%0.014%
7/7/2026 Grant Private Wealth Management Inc4,740$565K0.2%-3.9%0.011%
7/7/2026 Crescent Sterling Ltd.3,677$438K0.4%+5.5%0.008%
7/7/2026 Waller Financial Planning Group Inc.21,626$2.58M0.5%-6.7%0.049%
7/6/2026 Trilogy Capital Inc.28,736$3.42M0.1%+65.0%0.066%
7/1/2026 Marathon Mission Inc.48,442$5.77M2.9%+3.8%0.112%
6/18/2026 Western Wealth Management LLC21,645$2.09M0.1%+5.2%0.050%
6/16/2026 Empowered Funds LLC2,370$229K0.0%+2,790.2%0.005%
6/10/2026 FAS Wealth Partners Inc.342,972$33.14M2.1%+3.6%0.794%
6/9/2026 Robinswood Financial LLC415$40K0.1%N/A0.001%
Iran War Shock: What I Was Told In That Private Meeting (Ad)

You’re Being LIED To About The Iran War Forget EVERYTHING you’ve heard about the Iran war. Especially the reasons why we’re bombing the country.tc pixel

6/3/2026 NewEdge Advisors LLC10,146$980K0.0%-23.2%0.023%
5/26/2026 Glenmede Trust Co. NA1,868$180K0.0%+20.3%0.004%
5/22/2026 Verus Capital Partners LLC2,506$242K0.0%N/A0.006%
5/19/2026 Western Wealth Management LLC21,645$2.09M0.1%+5.2%0.050%
5/19/2026 NewEdge Advisors LLC9,689$936K0.0%-26.7%0.022%
5/19/2026 Bank of America Corp DE989,579$95.61M0.0%-13.6%2.291%
5/19/2026 Arkadios Wealth Advisors6,255$604K0.0%-61.7%0.014%
5/19/2026 IFS Group LLC4,429$428K0.4%N/A0.010%
5/18/2026 Royal Bank of Canada100,045$9.67M0.0%+21.0%0.232%
5/18/2026 Empowered Funds LLC2,370$229K0.0%+2,790.2%0.005%
5/16/2026 Quantinno Capital Management LP4,701$454K0.0%+16.9%0.011%
5/15/2026 Gateway Wealth Partners LLC4,006$387K0.0%N/A0.009%
5/15/2026 Vawter Financial Ltd.6,350$614K0.3%-3.0%0.015%
5/14/2026 Klingman & Associates LLC204,106$19.72M0.9%-0.3%0.472%
5/14/2026Gibbs Wealth Management41,743$4.03M0.5%+141.4%0.097%
5/13/2026 Cetera Investment Advisers474,052$45.80M0.0%+10.3%1.097%
5/13/2026 Prestige Wealth Management Group LLC34,646$3.35M0.7%+0.9%0.080%
5/13/2026 Wiregrass Investment Management LLC2,872$277K0.2%+10.0%0.007%
5/8/2026 Pacific Sun Financial Corp52,043$5.03M2.4%+0.2%0.120%
5/7/2026 Florida Financial Advisors LLC8,510$822K0.2%+44.8%0.020%
5/7/2026 Earned Wealth Advisors LLC77,064$7.45M0.5%+2.7%0.178%
5/7/2026 Basepoint Wealth LLC1,547$149K0.1%-7.1%0.004%
5/7/2026 Cornerstone Advisors Asset Management LLC27,718$2.68M0.4%N/A0.064%
5/7/2026 Balefire LLC4,208$407K0.1%+23.3%0.010%
5/7/2026 Koss Olinger Consulting LLC13,732$1.33M0.1%-26.6%0.032%
5/7/2026 Spartan Wealth Advisory Services LLC25,190$2.43M0.2%N/A0.058%
5/6/2026 Aire Advisors LLC227,655$22.00M4.0%+0.7%0.527%
5/6/2026 Assetmark Inc.56,680$5.48M0.0%+0.4%0.131%
5/6/2026 Independent Financial Group LLC2,216$214K0.0%N/A0.005%
5/6/2026 Prosperity Consulting Group LLC24,680$2.39M0.1%-4.3%0.057%
5/5/2026 Quartz Partners LLC2,080$201K0.1%N/A0.005%
5/5/2026 D.A. Davidson & CO.37,756$3.65M0.0%+8.7%0.087%
5/5/2026 Collaborative Wealth Managment Inc.2,421$234K0.1%N/A0.006%
5/5/2026 Geneos Wealth Management Inc.47,842$4.62M0.1%-2.8%0.111%
5/5/2026Signet Financial Management LLC48,588$4.70M0.5%-3.2%0.112%
5/5/2026 Sanctuary Advisors LLC8,740$844K0.0%-3.5%0.020%
5/5/2026 Sigma Planning Corp5,815$562K0.0%-38.2%0.013%
5/5/2026 Fell Capital Management ADV17,756$1.72M1.6%+15.3%0.041%
5/5/2026 Avantax Planning Partners Inc.333,499$32.22M0.9%+5.1%0.772%
5/4/2026 Integrity Wealth Solutions LLC78,421$7.58M3.0%-0.6%0.182%
5/4/2026 Bleakley Financial Group LLC23,126$2.23M0.0%+73.1%0.054%
5/4/2026 Chicago Partners Investment Group LLC40,576$4.32M0.1%+4.1%0.094%
5/2/2026 Navigate Wealth Management LLC5,498$583K0.4%N/A0.013%
5/2/2026 Global Assets Advisory LLC750$72K0.0%N/A0.002%
5/2/2026 Diversify Wealth Management LLC4,794$505K0.0%N/A0.011%
5/2/2026 Valmark Advisers Inc.9,011$871K0.0%+2.8%0.021%
5/2/2026 UNIVEST FINANCIAL Corp25,521$2.47M0.1%+14.7%0.059%
5/1/2026 Capital Squared Financial LLC12,991$1.26M1.0%+10.3%0.030%
5/1/2026 Midwest Trust Co8,667$837K0.0%+1.4%0.020%
5/1/2026 Fifth Third Bancorp7,502$725K0.0%+946.3%0.017%
Trump's New Dollar (Ad)

Porter Stansberry says President Trump has signed an executive order initiating what he calls a full U.S. dollar reset - and most Americans don't know it's happening. The last time America underwent a monetary shift like this, under Nixon in the 1970s, it minted an average of 1,300 new millionaires a day for over half a century. Stansberry has released a new documentary naming the assets he believes are positioned to surge as a result.tc pixel

Watch the free briefing and see the three steps to prepare today
5/1/2026 Sovran Advisors LLC1,985$192K0.0%-13.0%0.005%
5/1/2026 Walled Lake Planning & Wealth Management LLC5,042$487K0.1%-5.9%0.012%
5/1/2026 Diversified Investment Strategies LLC6,787$656K0.4%+2.3%0.016%
4/30/2026 Mosaic Family Wealth Partners LLC29,697$2.87M0.3%-4.3%0.071%
4/30/2026 Kestra Advisory Services LLC15,530$1.50M0.0%+16.3%0.037%
4/29/2026 Richmond Investment Services LLC5,461$528K0.1%+132.7%0.013%
4/29/2026 Cvfg LLC8,565$828K0.1%N/A0.021%
4/29/2026 Capstone Wealth Management Group LLC2,089$202K0.1%N/A0.005%
4/29/2026 Burney Co.7,310$706K0.0%-23.6%0.018%
4/29/2026 Integrated Advisors Network LLC3,405$329K0.0%-17.1%0.008%


SLYG Institutional Ownership - Frequently Asked Questions

During the previous two years, 525 institutional investors and hedge funds held shares of SPDR S&P 600 Small Cap Growth ETF. The most heavily invested institutionals were LPL Financial LLC ($440.76M), Financial Engines Advisors L.L.C. ($107.74M), Morgan Stanley ($97.51M), Bank of America Corp DE ($95.61M), Ameriprise Financial Inc. ($89.98M), Everhart Financial Group Inc. ($64.18M), and NorthRock Partners LLC ($62.28M).Learn more on SPDR S&P 600 Small Cap Growth ETF's institutional investors.

Of the 444 institutional investors that purchased SPDR S&P 600 Small Cap Growth ETF's stock in the last 24 months, the following investors and hedge funds have bought the highest volume of shares: LPL Financial LLC ($1.14M), Strategic Financial Concepts LLC ($841.75K), Everhart Financial Group Inc. ($495.89K), Citigroup Inc. ($465.10K), Raymond James Financial Inc. ($451.11K), NorthRock Partners LLC ($442.43K), and Diversified Enterprises LLC ($437.18K).

Institutional investors have bought a total of 4,839,636 shares in the last 24 months. This purchase volume represents approximately $472.31M in transactions.

Of the 198 institutional investors that sold SPDR S&P 600 Small Cap Growth ETF's stock in the last 24 months, the following investors and hedge funds have sold the highest volume of shares: Arax Advisory Partners ($800.55K), Northwestern Mutual Wealth Management Co. ($178.14K), Osaic Holdings Inc. ($165.48K), Financial Engines Advisors L.L.C. ($163.73K), Bank of America Corp DE ($156.19K), KWB Wealth ($151.19K), and Forbes Financial Planning Inc. ($72.26K).

Institutional investors have sold a total of 2,904,915 shares in the last 24 months. This volume of shares sold represents approximately $275.07M in transactions.



Institutional ownership data for NYSEARCA:SLYG is compiled from quarterly 13F filings submitted to the U.S. Securities and Exchange Commission (SEC), with the most recent received on 9/2/2026. New 13F filings are added each quarter as they're published.
From Our Partners